sensor_id;sensor_type;location;lat;lon;timestamp;P1;durP1;ratioP1;P2;durP2;ratioP2
43813;SDS011;29669;55.706;37.656;2023-07-16T00:01:19;7.30;;;6.57;;
43813;SDS011;29669;55.706;37.656;2023-07-16T00:03:46;10.32;;;6.93;;
43813;SDS011;29669;55.706;37.656;2023-07-16T00:06:14;11.57;;;7.15;;
43813;SDS011;29669;55.706;37.656;2023-07-16T00:08:42;8.13;;;6.82;;
43813;SDS011;29669;55.706;37.656;2023-07-16T00:11:10;14.07;;;7.63;;
43813;SDS011;29669;55.706;37.656;2023-07-16T00:13:37;7.75;;;6.97;;
43813;SDS011;29669;55.706;37.656;2023-07-16T00:16:05;8.43;;;7.10;;
43813;SDS011;29669;55.706;37.656;2023-07-16T00:18:32;10.32;;;7.40;;
43813;SDS011;29669;55.706;37.656;2023-07-16T00:21:00;8.88;;;7.63;;
43813;SDS011;29669;55.706;37.656;2023-07-16T00:23:27;9.68;;;7.18;;
43813;SDS011;29669;55.706;37.656;2023-07-16T00:25:55;8.15;;;7.25;;
43813;SDS011;29669;55.706;37.656;2023-07-16T00:28:23;11.75;;;6.47;;
43813;SDS011;29669;55.706;37.656;2023-07-16T00:30:51;7.07;;;5.80;;
43813;SDS011;29669;55.706;37.656;2023-07-16T00:33:19;7.35;;;6.55;;
43813;SDS011;29669;55.706;37.656;2023-07-16T00:35:48;11.50;;;7.22;;
43813;SDS011;29669;55.706;37.656;2023-07-16T00:38:17;12.15;;;8.20;;
43813;SDS011;29669;55.706;37.656;2023-07-16T00:40:45;9.30;;;7.30;;
43813;SDS011;29669;55.706;37.656;2023-07-16T00:43:14;7.45;;;6.32;;
43813;SDS011;29669;55.706;37.656;2023-07-16T00:45:42;9.63;;;7.07;;
43813;SDS011;29669;55.706;37.656;2023-07-16T00:48:12;13.88;;;7.30;;
43813;SDS011;29669;55.706;37.656;2023-07-16T00:50:40;8.77;;;6.90;;
43813;SDS011;29669;55.706;37.656;2023-07-16T00:53:09;9.02;;;6.75;;
43813;SDS011;29669;55.706;37.656;2023-07-16T00:55:37;10.27;;;6.63;;
43813;SDS011;29669;55.706;37.656;2023-07-16T00:58:06;8.35;;;6.25;;
43813;SDS011;29669;55.706;37.656;2023-07-16T01:00:35;11.38;;;6.45;;
43813;SDS011;29669;55.706;37.656;2023-07-16T01:03:08;6.25;;;5.63;;
43813;SDS011;29669;55.706;37.656;2023-07-16T01:08:11;8.15;;;6.25;;
43813;SDS011;29669;55.706;37.656;2023-07-16T01:10:41;9.20;;;6.07;;
43813;SDS011;29669;55.706;37.656;2023-07-16T01:13:09;6.47;;;5.75;;
43813;SDS011;29669;55.706;37.656;2023-07-16T01:15:37;6.60;;;5.75;;
43813;SDS011;29669;55.706;37.656;2023-07-16T01:18:06;6.18;;;5.57;;
43813;SDS011;29669;55.706;37.656;2023-07-16T01:20:34;5.82;;;5.22;;
43813;SDS011;29669;55.706;37.656;2023-07-16T01:23:10;6.43;;;5.28;;
43813;SDS011;29669;55.706;37.656;2023-07-16T01:26:06;8.90;;;5.35;;
43813;SDS011;29669;55.706;37.656;2023-07-16T01:28:53;5.30;;;4.80;;
43813;SDS011;29669;55.706;37.656;2023-07-16T01:31:31;7.47;;;5.10;;
43813;SDS011;29669;55.706;37.656;2023-07-16T01:34:01;7.63;;;5.68;;
43813;SDS011;29669;55.706;37.656;2023-07-16T01:36:33;5.97;;;5.32;;
43813;SDS011;29669;55.706;37.656;2023-07-16T01:39:02;13.77;;;5.38;;
43813;SDS011;29669;55.706;37.656;2023-07-16T01:41:31;7.97;;;5.00;;
43813;SDS011;29669;55.706;37.656;2023-07-16T01:43:58;5.85;;;5.25;;
43813;SDS011;29669;55.706;37.656;2023-07-16T01:46:26;7.75;;;5.57;;
43813;SDS011;29669;55.706;37.656;2023-07-16T01:48:54;6.97;;;5.35;;
43813;SDS011;29669;55.706;37.656;2023-07-16T01:51:22;5.60;;;4.95;;
43813;SDS011;29669;55.706;37.656;2023-07-16T01:53:50;8.05;;;5.30;;
43813;SDS011;29669;55.706;37.656;2023-07-16T01:56:17;7.00;;;5.20;;
43813;SDS011;29669;55.706;37.656;2023-07-16T01:58:47;9.20;;;4.95;;
43813;SDS011;29669;55.706;37.656;2023-07-16T02:01:17;9.55;;;4.78;;
43813;SDS011;29669;55.706;37.656;2023-07-16T02:03:45;9.32;;;6.00;;
43813;SDS011;29669;55.706;37.656;2023-07-16T02:06:13;5.53;;;4.60;;
43813;SDS011;29669;55.706;37.656;2023-07-16T02:08:42;5.47;;;4.97;;
43813;SDS011;29669;55.706;37.656;2023-07-16T02:11:10;5.55;;;5.05;;
43813;SDS011;29669;55.706;37.656;2023-07-16T02:13:37;7.40;;;5.00;;
43813;SDS011;29669;55.706;37.656;2023-07-16T02:16:06;5.32;;;4.82;;
43813;SDS011;29669;55.706;37.656;2023-07-16T02:18:33;7.80;;;5.80;;
43813;SDS011;29669;55.706;37.656;2023-07-16T02:21:21;5.68;;;5.00;;
43813;SDS011;29669;55.706;37.656;2023-07-16T02:23:49;6.82;;;4.97;;
43813;SDS011;29669;55.706;37.656;2023-07-16T02:26:17;8.30;;;5.38;;
43813;SDS011;29669;55.706;37.656;2023-07-16T02:28:45;7.20;;;5.20;;
43813;SDS011;29669;55.706;37.656;2023-07-16T02:31:12;5.30;;;4.65;;
43813;SDS011;29669;55.706;37.656;2023-07-16T02:33:41;6.28;;;4.93;;
43813;SDS011;29669;55.706;37.656;2023-07-16T02:36:08;7.72;;;5.28;;
43813;SDS011;29669;55.706;37.656;2023-07-16T02:38:36;7.60;;;5.00;;
43813;SDS011;29669;55.706;37.656;2023-07-16T02:41:03;5.40;;;4.90;;
43813;SDS011;29669;55.706;37.656;2023-07-16T02:43:32;8.60;;;5.63;;
43813;SDS011;29669;55.706;37.656;2023-07-16T02:46:00;5.53;;;5.03;;
43813;SDS011;29669;55.706;37.656;2023-07-16T02:48:29;10.27;;;5.43;;
43813;SDS011;29669;55.706;37.656;2023-07-16T02:50:56;6.50;;;5.45;;
43813;SDS011;29669;55.706;37.656;2023-07-16T02:53:24;8.68;;;5.38;;
43813;SDS011;29669;55.706;37.656;2023-07-16T02:55:52;8.15;;;5.15;;
43813;SDS011;29669;55.706;37.656;2023-07-16T02:58:19;6.43;;;5.75;;
43813;SDS011;29669;55.706;37.656;2023-07-16T03:00:49;5.97;;;5.28;;
43813;SDS011;29669;55.706;37.656;2023-07-16T03:03:17;5.78;;;5.28;;
43813;SDS011;29669;55.706;37.656;2023-07-16T03:05:45;6.45;;;5.38;;
43813;SDS011;29669;55.706;37.656;2023-07-16T03:08:12;7.07;;;5.13;;
43813;SDS011;29669;55.706;37.656;2023-07-16T03:10:40;6.97;;;5.70;;
43813;SDS011;29669;55.706;37.656;2023-07-16T03:13:07;8.88;;;5.93;;
43813;SDS011;29669;55.706;37.656;2023-07-16T03:15:35;6.00;;;5.43;;
43813;SDS011;29669;55.706;37.656;2023-07-16T03:18:03;11.20;;;5.45;;
43813;SDS011;29669;55.706;37.656;2023-07-16T03:20:31;5.90;;;5.25;;
43813;SDS011;29669;55.706;37.656;2023-07-16T03:22:59;8.57;;;6.00;;
43813;SDS011;29669;55.706;37.656;2023-07-16T03:25:26;6.32;;;5.50;;
43813;SDS011;29669;55.706;37.656;2023-07-16T03:27:54;8.82;;;6.10;;
43813;SDS011;29669;55.706;37.656;2023-07-16T03:30:22;6.80;;;5.78;;
43813;SDS011;29669;55.706;37.656;2023-07-16T03:32:49;7.68;;;6.00;;
43813;SDS011;29669;55.706;37.656;2023-07-16T03:35:22;8.65;;;6.20;;
43813;SDS011;29669;55.706;37.656;2023-07-16T03:37:52;7.55;;;5.32;;
43813;SDS011;29669;55.706;37.656;2023-07-16T03:40:25;7.28;;;5.45;;
43813;SDS011;29669;55.706;37.656;2023-07-16T03:42:53;7.35;;;5.00;;
43813;SDS011;29669;55.706;37.656;2023-07-16T03:45:23;6.50;;;5.30;;
43813;SDS011;29669;55.706;37.656;2023-07-16T03:47:51;6.78;;;6.00;;
43813;SDS011;29669;55.706;37.656;2023-07-16T03:50:18;7.30;;;5.40;;
43813;SDS011;29669;55.706;37.656;2023-07-16T03:52:47;11.30;;;6.15;;
43813;SDS011;29669;55.706;37.656;2023-07-16T03:55:15;8.40;;;5.88;;
43813;SDS011;29669;55.706;37.656;2023-07-16T03:57:43;8.18;;;5.43;;
43813;SDS011;29669;55.706;37.656;2023-07-16T04:00:11;6.45;;;5.43;;
43813;SDS011;29669;55.706;37.656;2023-07-16T04:02:46;6.32;;;5.22;;
43813;SDS011;29669;55.706;37.656;2023-07-16T04:05:17;6.35;;;5.60;;
43813;SDS011;29669;55.706;37.656;2023-07-16T04:07:50;10.15;;;5.22;;
43813;SDS011;29669;55.706;37.656;2023-07-16T04:10:17;7.03;;;5.50;;
43813;SDS011;29669;55.706;37.656;2023-07-16T04:12:45;6.70;;;4.85;;
43813;SDS011;29669;55.706;37.656;2023-07-16T04:15:13;7.47;;;5.28;;
43813;SDS011;29669;55.706;37.656;2023-07-16T04:17:41;7.93;;;4.75;;
43813;SDS011;29669;55.706;37.656;2023-07-16T04:20:08;6.40;;;5.80;;
43813;SDS011;29669;55.706;37.656;2023-07-16T04:22:36;5.47;;;4.85;;
43813;SDS011;29669;55.706;37.656;2023-07-16T04:25:04;8.15;;;4.70;;
43813;SDS011;29669;55.706;37.656;2023-07-16T04:27:32;6.10;;;5.45;;
43813;SDS011;29669;55.706;37.656;2023-07-16T04:29:59;7.25;;;5.60;;
43813;SDS011;29669;55.706;37.656;2023-07-16T04:32:27;9.43;;;5.60;;
43813;SDS011;29669;55.706;37.656;2023-07-16T04:34:54;7.82;;;5.85;;
43813;SDS011;29669;55.706;37.656;2023-07-16T04:37:22;6.80;;;5.57;;
43813;SDS011;29669;55.706;37.656;2023-07-16T04:39:50;7.63;;;5.90;;
43813;SDS011;29669;55.706;37.656;2023-07-16T04:42:17;6.65;;;5.65;;
43813;SDS011;29669;55.706;37.656;2023-07-16T04:44:45;7.85;;;5.55;;
43813;SDS011;29669;55.706;37.656;2023-07-16T04:47:13;6.05;;;5.45;;
43813;SDS011;29669;55.706;37.656;2023-07-16T04:49:40;7.13;;;5.68;;
43813;SDS011;29669;55.706;37.656;2023-07-16T04:52:08;6.65;;;5.95;;
43813;SDS011;29669;55.706;37.656;2023-07-16T04:54:36;6.90;;;5.30;;
43813;SDS011;29669;55.706;37.656;2023-07-16T04:57:05;7.30;;;6.20;;
43813;SDS011;29669;55.706;37.656;2023-07-16T04:59:34;6.43;;;5.82;;
43813;SDS011;29669;55.706;37.656;2023-07-16T05:02:04;7.78;;;6.07;;
43813;SDS011;29669;55.706;37.656;2023-07-16T05:04:42;7.13;;;5.43;;
43813;SDS011;29669;55.706;37.656;2023-07-16T05:08:23;7.70;;;5.25;;
43813;SDS011;29669;55.706;37.656;2023-07-16T05:12:33;13.05;;;5.82;;
43813;SDS011;29669;55.706;37.656;2023-07-16T05:15:00;9.32;;;6.38;;
43813;SDS011;29669;55.706;37.656;2023-07-16T05:17:30;8.43;;;6.43;;
43813;SDS011;29669;55.706;37.656;2023-07-16T05:19:58;8.70;;;6.32;;
43813;SDS011;29669;55.706;37.656;2023-07-16T05:22:30;6.82;;;6.25;;
43813;SDS011;29669;55.706;37.656;2023-07-16T05:24:58;5.82;;;5.32;;
43813;SDS011;29669;55.706;37.656;2023-07-16T05:27:25;7.60;;;5.70;;
43813;SDS011;29669;55.706;37.656;2023-07-16T05:29:53;8.23;;;5.55;;
43813;SDS011;29669;55.706;37.656;2023-07-16T05:32:21;5.85;;;5.15;;
43813;SDS011;29669;55.706;37.656;2023-07-16T05:34:49;6.20;;;5.65;;
43813;SDS011;29669;55.706;37.656;2023-07-16T05:37:17;9.43;;;5.70;;
43813;SDS011;29669;55.706;37.656;2023-07-16T05:39:44;8.40;;;6.18;;
43813;SDS011;29669;55.706;37.656;2023-07-16T05:42:15;10.48;;;6.63;;
43813;SDS011;29669;55.706;37.656;2023-07-16T05:44:43;9.93;;;6.45;;
43813;SDS011;29669;55.706;37.656;2023-07-16T05:47:11;6.28;;;5.65;;
43813;SDS011;29669;55.706;37.656;2023-07-16T05:49:39;6.15;;;5.55;;
43813;SDS011;29669;55.706;37.656;2023-07-16T05:52:06;6.82;;;6.07;;
43813;SDS011;29669;55.706;37.656;2023-07-16T05:54:35;9.40;;;6.15;;
43813;SDS011;29669;55.706;37.656;2023-07-16T05:57:03;13.00;;;6.28;;
43813;SDS011;29669;55.706;37.656;2023-07-16T05:59:31;7.32;;;6.05;;
43813;SDS011;29669;55.706;37.656;2023-07-16T06:02:03;9.88;;;6.03;;
43813;SDS011;29669;55.706;37.656;2023-07-16T06:04:31;7.00;;;5.45;;
43813;SDS011;29669;55.706;37.656;2023-07-16T06:06:59;6.28;;;5.68;;
43813;SDS011;29669;55.706;37.656;2023-07-16T06:09:26;6.28;;;5.68;;
43813;SDS011;29669;55.706;37.656;2023-07-16T06:11:54;9.05;;;5.60;;
43813;SDS011;29669;55.706;37.656;2023-07-16T06:14:21;6.30;;;5.55;;
43813;SDS011;29669;55.706;37.656;2023-07-16T06:16:49;6.38;;;5.78;;
43813;SDS011;29669;55.706;37.656;2023-07-16T06:19:17;8.63;;;5.90;;
43813;SDS011;29669;55.706;37.656;2023-07-16T06:21:44;7.47;;;5.63;;
43813;SDS011;29669;55.706;37.656;2023-07-16T06:24:12;6.68;;;5.97;;
43813;SDS011;29669;55.706;37.656;2023-07-16T06:26:43;5.90;;;5.30;;
43813;SDS011;29669;55.706;37.656;2023-07-16T06:29:11;6.57;;;5.80;;
43813;SDS011;29669;55.706;37.656;2023-07-16T06:31:38;7.82;;;5.47;;
43813;SDS011;29669;55.706;37.656;2023-07-16T06:34:09;8.45;;;5.32;;
43813;SDS011;29669;55.706;37.656;2023-07-16T06:36:37;5.85;;;5.32;;
43813;SDS011;29669;55.706;37.656;2023-07-16T06:39:05;7.88;;;5.50;;
43813;SDS011;29669;55.706;37.656;2023-07-16T06:41:32;6.25;;;5.53;;
43813;SDS011;29669;55.706;37.656;2023-07-16T06:44:00;6.32;;;5.40;;
43813;SDS011;29669;55.706;37.656;2023-07-16T06:46:28;6.25;;;5.50;;
43813;SDS011;29669;55.706;37.656;2023-07-16T06:48:55;6.00;;;5.43;;
43813;SDS011;29669;55.706;37.656;2023-07-16T06:51:23;8.85;;;5.18;;
43813;SDS011;29669;55.706;37.656;2023-07-16T06:53:51;7.50;;;5.57;;
43813;SDS011;29669;55.706;37.656;2023-07-16T06:56:18;8.80;;;5.93;;
43813;SDS011;29669;55.706;37.656;2023-07-16T06:58:48;6.45;;;5.45;;
43813;SDS011;29669;55.706;37.656;2023-07-16T07:01:17;5.90;;;5.15;;
43813;SDS011;29669;55.706;37.656;2023-07-16T07:03:45;8.35;;;6.85;;
43813;SDS011;29669;55.706;37.656;2023-07-16T07:06:12;7.65;;;5.90;;
43813;SDS011;29669;55.706;37.656;2023-07-16T07:08:41;6.85;;;5.72;;
43813;SDS011;29669;55.706;37.656;2023-07-16T07:11:08;9.00;;;6.15;;
43813;SDS011;29669;55.706;37.656;2023-07-16T07:13:36;7.57;;;5.40;;
43813;SDS011;29669;55.706;37.656;2023-07-16T07:16:03;6.70;;;5.68;;
43813;SDS011;29669;55.706;37.656;2023-07-16T07:18:34;8.45;;;6.65;;
43813;SDS011;29669;55.706;37.656;2023-07-16T07:21:01;13.18;;;6.15;;
43813;SDS011;29669;55.706;37.656;2023-07-16T07:23:29;9.80;;;6.47;;
43813;SDS011;29669;55.706;37.656;2023-07-16T07:25:56;8.88;;;5.63;;
43813;SDS011;29669;55.706;37.656;2023-07-16T07:28:24;7.65;;;6.55;;
43813;SDS011;29669;55.706;37.656;2023-07-16T07:30:51;7.05;;;5.60;;
43813;SDS011;29669;55.706;37.656;2023-07-16T07:33:19;8.57;;;6.40;;
43813;SDS011;29669;55.706;37.656;2023-07-16T07:35:49;11.52;;;5.65;;
43813;SDS011;29669;55.706;37.656;2023-07-16T07:38:20;6.50;;;5.90;;
43813;SDS011;29669;55.706;37.656;2023-07-16T07:40:48;6.53;;;5.47;;
43813;SDS011;29669;55.706;37.656;2023-07-16T07:43:15;7.63;;;6.35;;
43813;SDS011;29669;55.706;37.656;2023-07-16T07:45:43;6.50;;;5.82;;
43813;SDS011;29669;55.706;37.656;2023-07-16T07:48:11;7.80;;;5.38;;
43813;SDS011;29669;55.706;37.656;2023-07-16T07:50:39;8.77;;;6.00;;
43813;SDS011;29669;55.706;37.656;2023-07-16T07:53:06;6.40;;;5.80;;
43813;SDS011;29669;55.706;37.656;2023-07-16T07:55:34;6.72;;;5.70;;
43813;SDS011;29669;55.706;37.656;2023-07-16T07:58:05;7.95;;;5.45;;
43813;SDS011;29669;55.706;37.656;2023-07-16T08:00:33;6.95;;;5.82;;
43813;SDS011;29669;55.706;37.656;2023-07-16T08:03:00;7.60;;;5.05;;
43813;SDS011;29669;55.706;37.656;2023-07-16T08:05:29;7.63;;;4.70;;
43813;SDS011;29669;55.706;37.656;2023-07-16T08:07:56;8.30;;;4.47;;
43813;SDS011;29669;55.706;37.656;2023-07-16T08:10:24;6.75;;;5.00;;
43813;SDS011;29669;55.706;37.656;2023-07-16T08:12:51;6.15;;;4.60;;
43813;SDS011;29669;55.706;37.656;2023-07-16T08:15:19;7.88;;;4.93;;
43813;SDS011;29669;55.706;37.656;2023-07-16T08:17:46;6.60;;;5.20;;
43813;SDS011;29669;55.706;37.656;2023-07-16T08:20:15;6.90;;;4.60;;
43813;SDS011;29669;55.706;37.656;2023-07-16T08:22:43;9.77;;;5.03;;
43813;SDS011;29669;55.706;37.656;2023-07-16T08:25:10;6.75;;;5.18;;
43813;SDS011;29669;55.706;37.656;2023-07-16T08:27:37;4.15;;;3.83;;
43813;SDS011;29669;55.706;37.656;2023-07-16T08:30:05;5.10;;;4.30;;
43813;SDS011;29669;55.706;37.656;2023-07-16T08:32:33;5.70;;;4.60;;
43813;SDS011;29669;55.706;37.656;2023-07-16T08:35:01;6.57;;;4.90;;
43813;SDS011;29669;55.706;37.656;2023-07-16T08:37:29;6.13;;;5.13;;
43813;SDS011;29669;55.706;37.656;2023-07-16T08:39:56;6.00;;;4.72;;
43813;SDS011;29669;55.706;37.656;2023-07-16T08:42:24;4.68;;;4.20;;
43813;SDS011;29669;55.706;37.656;2023-07-16T08:44:52;5.72;;;4.32;;
43813;SDS011;29669;55.706;37.656;2023-07-16T08:47:20;5.53;;;4.20;;
43813;SDS011;29669;55.706;37.656;2023-07-16T08:49:53;6.60;;;4.93;;
43813;SDS011;29669;55.706;37.656;2023-07-16T08:52:26;8.98;;;5.22;;
43813;SDS011;29669;55.706;37.656;2023-07-16T08:54:55;7.20;;;5.03;;
43813;SDS011;29669;55.706;37.656;2023-07-16T08:57:23;6.00;;;4.20;;
43813;SDS011;29669;55.706;37.656;2023-07-16T08:59:51;6.22;;;4.75;;
43813;SDS011;29669;55.706;37.656;2023-07-16T09:02:19;5.30;;;4.65;;
43813;SDS011;29669;55.706;37.656;2023-07-16T09:04:47;5.65;;;4.60;;
43813;SDS011;29669;55.706;37.656;2023-07-16T09:07:16;12.93;;;4.40;;
43813;SDS011;29669;55.706;37.656;2023-07-16T09:09:54;8.02;;;4.95;;
43813;SDS011;29669;55.706;37.656;2023-07-16T09:12:25;5.95;;;4.75;;
43813;SDS011;29669;55.706;37.656;2023-07-16T09:14:54;5.45;;;4.22;;
43813;SDS011;29669;55.706;37.656;2023-07-16T09:17:22;5.30;;;4.22;;
43813;SDS011;29669;55.706;37.656;2023-07-16T09:19:54;4.65;;;4.10;;
43813;SDS011;29669;55.706;37.656;2023-07-16T09:22:22;5.40;;;4.60;;
43813;SDS011;29669;55.706;37.656;2023-07-16T09:24:54;7.15;;;4.07;;
43813;SDS011;29669;55.706;37.656;2023-07-16T09:27:30;5.70;;;4.20;;
43813;SDS011;29669;55.706;37.656;2023-07-16T09:32:33;5.07;;;4.10;;
43813;SDS011;29669;55.706;37.656;2023-07-16T09:35:09;5.72;;;5.10;;
43813;SDS011;29669;55.706;37.656;2023-07-16T09:37:37;5.60;;;4.10;;
43813;SDS011;29669;55.706;37.656;2023-07-16T09:40:09;4.15;;;3.78;;
43813;SDS011;29669;55.706;37.656;2023-07-16T09:42:42;5.75;;;4.57;;
43813;SDS011;29669;55.706;37.656;2023-07-16T09:45:17;6.18;;;4.30;;
43813;SDS011;29669;55.706;37.656;2023-07-16T09:47:46;5.85;;;4.25;;
43813;SDS011;29669;55.706;37.656;2023-07-16T09:50:14;5.35;;;4.30;;
43813;SDS011;29669;55.706;37.656;2023-07-16T09:52:41;5.18;;;4.43;;
43813;SDS011;29669;55.706;37.656;2023-07-16T09:55:10;5.13;;;4.43;;
43813;SDS011;29669;55.706;37.656;2023-07-16T09:57:39;4.78;;;4.28;;
43813;SDS011;29669;55.706;37.656;2023-07-16T10:00:10;6.47;;;4.35;;
43813;SDS011;29669;55.706;37.656;2023-07-16T10:02:44;3.83;;;3.42;;
43813;SDS011;29669;55.706;37.656;2023-07-16T10:05:15;6.53;;;3.85;;
43813;SDS011;29669;55.706;37.656;2023-07-16T10:07:55;6.68;;;3.83;;
43813;SDS011;29669;55.706;37.656;2023-07-16T10:13:13;5.70;;;3.90;;
43813;SDS011;29669;55.706;37.656;2023-07-16T10:15:51;4.55;;;3.40;;
43813;SDS011;29669;55.706;37.656;2023-07-16T10:18:28;5.22;;;3.47;;
43813;SDS011;29669;55.706;37.656;2023-07-16T10:21:02;3.70;;;3.40;;
43813;SDS011;29669;55.706;37.656;2023-07-16T10:23:36;7.43;;;4.05;;
43813;SDS011;29669;55.706;37.656;2023-07-16T10:26:11;3.83;;;3.42;;
43813;SDS011;29669;55.706;37.656;2023-07-16T10:28:45;5.32;;;4.00;;
43813;SDS011;29669;55.706;37.656;2023-07-16T10:31:23;4.10;;;3.70;;
43813;SDS011;29669;55.706;37.656;2023-07-16T10:34:02;6.03;;;3.72;;
43813;SDS011;29669;55.706;37.656;2023-07-16T10:36:38;4.07;;;3.60;;
43813;SDS011;29669;55.706;37.656;2023-07-16T10:39:07;3.28;;;2.97;;
43813;SDS011;29669;55.706;37.656;2023-07-16T10:41:35;3.50;;;3.20;;
43813;SDS011;29669;55.706;37.656;2023-07-16T10:44:03;3.70;;;3.40;;
43813;SDS011;29669;55.706;37.656;2023-07-16T10:46:31;4.07;;;3.17;;
43813;SDS011;29669;55.706;37.656;2023-07-16T10:49:48;4.20;;;3.53;;
43813;SDS011;29669;55.706;37.656;2023-07-16T10:57:04;4.13;;;3.72;;
43813;SDS011;29669;55.706;37.656;2023-07-16T10:59:32;4.22;;;3.65;;
43813;SDS011;29669;55.706;37.656;2023-07-16T11:01:59;6.15;;;3.40;;
43813;SDS011;29669;55.706;37.656;2023-07-16T11:04:32;5.18;;;4.07;;
43813;SDS011;29669;55.706;37.656;2023-07-16T11:07:05;6.35;;;3.83;;
43813;SDS011;29669;55.706;37.656;2023-07-16T11:09:48;6.07;;;3.47;;
43813;SDS011;29669;55.706;37.656;2023-07-16T11:12:21;4.47;;;3.90;;
43813;SDS011;29669;55.706;37.656;2023-07-16T11:14:51;4.35;;;3.65;;
43813;SDS011;29669;55.706;37.656;2023-07-16T11:17:21;7.45;;;3.90;;
43813;SDS011;29669;55.706;37.656;2023-07-16T11:19:51;4.63;;;3.38;;
43813;SDS011;29669;55.706;37.656;2023-07-16T11:22:19;4.13;;;3.72;;
43813;SDS011;29669;55.706;37.656;2023-07-16T11:24:51;4.03;;;3.65;;
43813;SDS011;29669;55.706;37.656;2023-07-16T11:27:20;4.78;;;3.80;;
43813;SDS011;29669;55.706;37.656;2023-07-16T11:29:50;4.00;;;3.60;;
43813;SDS011;29669;55.706;37.656;2023-07-16T11:32:27;7.40;;;5.28;;
43813;SDS011;29669;55.706;37.656;2023-07-16T11:35:17;4.72;;;4.25;;
43813;SDS011;29669;55.706;37.656;2023-07-16T11:37:45;5.03;;;4.57;;
43813;SDS011;29669;55.706;37.656;2023-07-16T11:40:17;5.57;;;4.63;;
43813;SDS011;29669;55.706;37.656;2023-07-16T11:42:47;5.13;;;3.70;;
43813;SDS011;29669;55.706;37.656;2023-07-16T11:45:18;4.35;;;3.95;;
43813;SDS011;29669;55.706;37.656;2023-07-16T11:47:54;4.20;;;3.80;;
43813;SDS011;29669;55.706;37.656;2023-07-16T11:50:22;6.57;;;3.40;;
43813;SDS011;29669;55.706;37.656;2023-07-16T11:52:53;4.88;;;3.80;;
43813;SDS011;29669;55.706;37.656;2023-07-16T11:55:23;5.63;;;4.28;;
43813;SDS011;29669;55.706;37.656;2023-07-16T11:57:51;4.30;;;3.80;;
43813;SDS011;29669;55.706;37.656;2023-07-16T12:00:19;4.78;;;4.05;;
43813;SDS011;29669;55.706;37.656;2023-07-16T12:02:46;4.88;;;3.90;;
43813;SDS011;29669;55.706;37.656;2023-07-16T12:05:22;7.22;;;3.35;;
43813;SDS011;29669;55.706;37.656;2023-07-16T12:08:14;3.58;;;3.28;;
43813;SDS011;29669;55.706;37.656;2023-07-16T12:10:42;4.70;;;3.55;;
43813;SDS011;29669;55.706;37.656;2023-07-16T12:13:10;3.60;;;3.10;;
43813;SDS011;29669;55.706;37.656;2023-07-16T12:15:38;4.47;;;3.60;;
43813;SDS011;29669;55.706;37.656;2023-07-16T12:18:05;4.63;;;3.92;;
43813;SDS011;29669;55.706;37.656;2023-07-16T12:20:33;5.88;;;3.92;;
43813;SDS011;29669;55.706;37.656;2023-07-16T12:23:01;6.22;;;3.80;;
43813;SDS011;29669;55.706;37.656;2023-07-16T12:25:30;4.20;;;3.80;;
43813;SDS011;29669;55.706;37.656;2023-07-16T12:27:58;7.00;;;3.35;;
43813;SDS011;29669;55.706;37.656;2023-07-16T12:30:25;3.97;;;3.15;;
43813;SDS011;29669;55.706;37.656;2023-07-16T12:32:59;6.75;;;3.38;;
43813;SDS011;29669;55.706;37.656;2023-07-16T12:35:27;5.25;;;3.50;;
43813;SDS011;29669;55.706;37.656;2023-07-16T12:37:54;3.95;;;3.55;;
43813;SDS011;29669;55.706;37.656;2023-07-16T12:40:25;7.15;;;4.00;;
43813;SDS011;29669;55.706;37.656;2023-07-16T12:42:55;5.50;;;4.15;;
43813;SDS011;29669;55.706;37.656;2023-07-16T12:45:22;4.20;;;3.90;;
43813;SDS011;29669;55.706;37.656;2023-07-16T12:47:50;4.22;;;3.70;;
43813;SDS011;29669;55.706;37.656;2023-07-16T12:50:18;5.57;;;4.03;;
43813;SDS011;29669;55.706;37.656;2023-07-16T12:52:45;3.95;;;3.55;;
43813;SDS011;29669;55.706;37.656;2023-07-16T12:55:13;4.00;;;3.60;;
43813;SDS011;29669;55.706;37.656;2023-07-16T12:57:41;5.90;;;5.30;;
43813;SDS011;29669;55.706;37.656;2023-07-16T13:00:08;4.40;;;3.97;;
43813;SDS011;29669;55.706;37.656;2023-07-16T13:02:38;4.78;;;4.28;;
43813;SDS011;29669;55.706;37.656;2023-07-16T13:05:06;4.30;;;3.90;;
43813;SDS011;29669;55.706;37.656;2023-07-16T13:07:34;4.75;;;4.35;;
43813;SDS011;29669;55.706;37.656;2023-07-16T13:10:02;9.10;;;4.30;;
43813;SDS011;29669;55.706;37.656;2023-07-16T13:12:49;4.43;;;3.60;;
43813;SDS011;29669;55.706;37.656;2023-07-16T13:15:17;7.25;;;3.85;;
43813;SDS011;29669;55.706;37.656;2023-07-16T13:17:44;5.47;;;4.65;;
43813;SDS011;29669;55.706;37.656;2023-07-16T13:20:12;9.77;;;5.20;;
43813;SDS011;29669;55.706;37.656;2023-07-16T13:22:58;5.75;;;5.18;;
43813;SDS011;29669;55.706;37.656;2023-07-16T13:25:27;6.68;;;4.70;;
43813;SDS011;29669;55.706;37.656;2023-07-16T13:27:56;5.53;;;3.42;;
43813;SDS011;29669;55.706;37.656;2023-07-16T13:30:24;5.20;;;4.00;;
43813;SDS011;29669;55.706;37.656;2023-07-16T13:32:53;4.75;;;3.42;;
43813;SDS011;29669;55.706;37.656;2023-07-16T13:35:23;5.70;;;3.65;;
43813;SDS011;29669;55.706;37.656;2023-07-16T13:37:51;7.85;;;3.20;;
43813;SDS011;29669;55.706;37.656;2023-07-16T13:40:19;5.35;;;3.67;;
43813;SDS011;29669;55.706;37.656;2023-07-16T13:42:47;5.38;;;3.88;;
43813;SDS011;29669;55.706;37.656;2023-07-16T13:45:15;6.35;;;3.30;;
43813;SDS011;29669;55.706;37.656;2023-07-16T13:47:43;3.53;;;3.22;;
43813;SDS011;29669;55.706;37.656;2023-07-16T13:50:10;6.22;;;3.58;;
43813;SDS011;29669;55.706;37.656;2023-07-16T13:52:38;4.15;;;3.85;;
43813;SDS011;29669;55.706;37.656;2023-07-16T13:55:06;3.72;;;3.30;;
43813;SDS011;29669;55.706;37.656;2023-07-16T13:57:33;5.80;;;3.67;;
43813;SDS011;29669;55.706;37.656;2023-07-16T14:00:01;5.28;;;3.40;;
43813;SDS011;29669;55.706;37.656;2023-07-16T14:02:31;7.40;;;3.80;;
43813;SDS011;29669;55.706;37.656;2023-07-16T14:04:59;6.40;;;4.10;;
43813;SDS011;29669;55.706;37.656;2023-07-16T14:07:27;5.20;;;3.95;;
43813;SDS011;29669;55.706;37.656;2023-07-16T14:09:55;4.55;;;4.03;;
43813;SDS011;29669;55.706;37.656;2023-07-16T14:12:23;4.25;;;3.65;;
43813;SDS011;29669;55.706;37.656;2023-07-16T14:14:51;6.68;;;3.78;;
43813;SDS011;29669;55.706;37.656;2023-07-16T14:17:19;4.72;;;4.10;;
43813;SDS011;29669;55.706;37.656;2023-07-16T14:19:48;5.18;;;4.28;;
43813;SDS011;29669;55.706;37.656;2023-07-16T14:22:16;5.00;;;3.97;;
43813;SDS011;29669;55.706;37.656;2023-07-16T14:24:44;4.90;;;4.13;;
43813;SDS011;29669;55.706;37.656;2023-07-16T14:27:12;4.53;;;4.10;;
43813;SDS011;29669;55.706;37.656;2023-07-16T14:29:41;4.18;;;3.70;;
43813;SDS011;29669;55.706;37.656;2023-07-16T14:32:30;5.25;;;3.80;;
43813;SDS011;29669;55.706;37.656;2023-07-16T14:34:59;4.10;;;3.70;;
43813;SDS011;29669;55.706;37.656;2023-07-16T14:37:31;6.05;;;4.40;;
43813;SDS011;29669;55.706;37.656;2023-07-16T14:39:59;4.05;;;3.45;;
43813;SDS011;29669;55.706;37.656;2023-07-16T14:42:26;4.20;;;3.80;;
43813;SDS011;29669;55.706;37.656;2023-07-16T14:44:54;4.93;;;3.58;;
43813;SDS011;29669;55.706;37.656;2023-07-16T14:47:22;5.22;;;3.90;;
43813;SDS011;29669;55.706;37.656;2023-07-16T14:49:49;5.32;;;4.28;;
43813;SDS011;29669;55.706;37.656;2023-07-16T14:52:17;5.18;;;3.80;;
43813;SDS011;29669;55.706;37.656;2023-07-16T14:54:46;7.57;;;3.78;;
43813;SDS011;29669;55.706;37.656;2023-07-16T14:57:13;8.75;;;4.57;;
43813;SDS011;29669;55.706;37.656;2023-07-16T14:59:41;5.57;;;4.75;;
43813;SDS011;29669;55.706;37.656;2023-07-16T15:02:09;3.85;;;3.50;;